sensor_id;sensor_type;location;lat;lon;timestamp;P1;durP1;ratioP1;P2;durP2;ratioP2
39018;SDS011;24786;51.984;5.872;2023-03-23T00:01:13;8.43;;;4.45;;
39018;SDS011;24786;51.984;5.872;2023-03-23T00:03:40;6.57;;;4.55;;
39018;SDS011;24786;51.984;5.872;2023-03-23T00:06:06;8.45;;;4.60;;
39018;SDS011;24786;51.984;5.872;2023-03-23T00:08:33;8.65;;;4.50;;
39018;SDS011;24786;51.984;5.872;2023-03-23T00:11:10;8.38;;;4.43;;
39018;SDS011;24786;51.984;5.872;2023-03-23T00:13:40;6.40;;;4.30;;
39018;SDS011;24786;51.984;5.872;2023-03-23T00:16:07;6.57;;;4.38;;
39018;SDS011;24786;51.984;5.872;2023-03-23T00:18:42;6.57;;;3.80;;
39018;SDS011;24786;51.984;5.872;2023-03-23T00:21:09;5.65;;;4.35;;
39018;SDS011;24786;51.984;5.872;2023-03-23T00:23:34;7.53;;;4.38;;
39018;SDS011;24786;51.984;5.872;2023-03-23T00:26:00;7.82;;;4.15;;
39018;SDS011;24786;51.984;5.872;2023-03-23T00:28:26;5.72;;;4.05;;
39018;SDS011;24786;51.984;5.872;2023-03-23T00:30:59;9.57;;;4.20;;
39018;SDS011;24786;51.984;5.872;2023-03-23T00:33:27;7.63;;;5.65;;
39018;SDS011;24786;51.984;5.872;2023-03-23T00:35:58;6.97;;;4.40;;
39018;SDS011;24786;51.984;5.872;2023-03-23T00:38:24;7.50;;;4.50;;
39018;SDS011;24786;51.984;5.872;2023-03-23T00:40:50;7.85;;;4.05;;
39018;SDS011;24786;51.984;5.872;2023-03-23T00:43:17;7.28;;;4.35;;
39018;SDS011;24786;51.984;5.872;2023-03-23T00:45:44;8.18;;;4.45;;
39018;SDS011;24786;51.984;5.872;2023-03-23T00:48:14;6.40;;;3.92;;
39018;SDS011;24786;51.984;5.872;2023-03-23T00:50:40;5.60;;;3.67;;
39018;SDS011;24786;51.984;5.872;2023-03-23T00:53:06;5.72;;;4.22;;
39018;SDS011;24786;51.984;5.872;2023-03-23T00:55:31;5.63;;;4.13;;
39018;SDS011;24786;51.984;5.872;2023-03-23T00:57:58;5.50;;;3.53;;
39018;SDS011;24786;51.984;5.872;2023-03-23T01:00:24;5.70;;;3.90;;
39018;SDS011;24786;51.984;5.872;2023-03-23T01:02:50;6.10;;;4.30;;
39018;SDS011;24786;51.984;5.872;2023-03-23T01:05:17;7.57;;;4.20;;
39018;SDS011;24786;51.984;5.872;2023-03-23T01:07:43;6.82;;;4.22;;
39018;SDS011;24786;51.984;5.872;2023-03-23T01:10:09;6.20;;;4.38;;
39018;SDS011;24786;51.984;5.872;2023-03-23T01:12:37;8.25;;;4.85;;
39018;SDS011;24786;51.984;5.872;2023-03-23T01:15:06;5.35;;;4.28;;
39018;SDS011;24786;51.984;5.872;2023-03-23T01:17:32;7.82;;;4.60;;
39018;SDS011;24786;51.984;5.872;2023-03-23T01:19:58;4.45;;;3.97;;
39018;SDS011;24786;51.984;5.872;2023-03-23T01:22:23;5.78;;;4.03;;
39018;SDS011;24786;51.984;5.872;2023-03-23T01:24:49;5.25;;;4.38;;
39018;SDS011;24786;51.984;5.872;2023-03-23T01:27:14;7.50;;;4.05;;
39018;SDS011;24786;51.984;5.872;2023-03-23T01:29:40;8.25;;;4.30;;
39018;SDS011;24786;51.984;5.872;2023-03-23T01:32:05;5.10;;;3.88;;
39018;SDS011;24786;51.984;5.872;2023-03-23T01:34:31;8.55;;;4.18;;
39018;SDS011;24786;51.984;5.872;2023-03-23T01:36:56;6.65;;;3.97;;
39018;SDS011;24786;51.984;5.872;2023-03-23T01:39:22;6.88;;;3.70;;
39018;SDS011;24786;51.984;5.872;2023-03-23T01:41:48;4.65;;;4.10;;
39018;SDS011;24786;51.984;5.872;2023-03-23T01:46:43;5.67;;;4.30;;
39018;SDS011;24786;51.984;5.872;2023-03-23T01:49:10;5.32;;;3.80;;
39018;SDS011;24786;51.984;5.872;2023-03-23T01:51:40;7.07;;;4.18;;
39018;SDS011;24786;51.984;5.872;2023-03-23T01:54:17;7.05;;;4.45;;
39018;SDS011;24786;51.984;5.872;2023-03-23T01:56:55;5.43;;;3.80;;
39018;SDS011;24786;51.984;5.872;2023-03-23T01:59:24;5.00;;;4.32;;
39018;SDS011;24786;51.984;5.872;2023-03-23T02:01:52;5.53;;;4.20;;
39018;SDS011;24786;51.984;5.872;2023-03-23T02:04:19;6.55;;;3.97;;
39018;SDS011;24786;51.984;5.872;2023-03-23T02:06:47;4.73;;;4.20;;
39018;SDS011;24786;51.984;5.872;2023-03-23T02:09:13;6.30;;;3.90;;
39018;SDS011;24786;51.984;5.872;2023-03-23T02:11:42;6.47;;;4.47;;
39018;SDS011;24786;51.984;5.872;2023-03-23T02:14:08;7.18;;;4.10;;
39018;SDS011;24786;51.984;5.872;2023-03-23T02:27:08;6.40;;;4.40;;
39018;SDS011;24786;51.984;5.872;2023-03-23T02:35:23;12.30;;;4.97;;
39018;SDS011;24786;51.984;5.872;2023-03-23T02:38:08;5.60;;;4.88;;
39018;SDS011;24786;51.984;5.872;2023-03-23T02:40:44;4.78;;;4.28;;
39018;SDS011;24786;51.984;5.872;2023-03-23T02:43:13;5.82;;;4.32;;
39018;SDS011;24786;51.984;5.872;2023-03-23T02:45:42;6.00;;;4.35;;
39018;SDS011;24786;51.984;5.872;2023-03-23T02:48:09;8.15;;;4.68;;
39018;SDS011;24786;51.984;5.872;2023-03-23T02:50:40;7.28;;;4.45;;
39018;SDS011;24786;51.984;5.872;2023-03-23T02:53:10;5.65;;;4.65;;
39018;SDS011;24786;51.984;5.872;2023-03-23T02:55:39;7.80;;;4.67;;
39018;SDS011;24786;51.984;5.872;2023-03-23T03:00:34;5.50;;;4.50;;
39018;SDS011;24786;51.984;5.872;2023-03-23T03:03:00;6.82;;;4.55;;
39018;SDS011;24786;51.984;5.872;2023-03-23T03:10:50;9.00;;;4.82;;
39018;SDS011;24786;51.984;5.872;2023-03-23T03:13:25;7.50;;;4.57;;
39018;SDS011;24786;51.984;5.872;2023-03-23T03:18:38;5.18;;;4.45;;
39018;SDS011;24786;51.984;5.872;2023-03-23T03:21:12;6.22;;;4.68;;
39018;SDS011;24786;51.984;5.872;2023-03-23T03:23:40;8.30;;;4.18;;
39018;SDS011;24786;51.984;5.872;2023-03-23T03:26:09;11.35;;;5.00;;
39018;SDS011;24786;51.984;5.872;2023-03-23T03:28:37;4.95;;;4.45;;
39018;SDS011;24786;51.984;5.872;2023-03-23T03:31:04;8.10;;;4.63;;
39018;SDS011;24786;51.984;5.872;2023-03-23T03:33:31;8.02;;;4.78;;
39018;SDS011;24786;51.984;5.872;2023-03-23T03:35:59;4.30;;;3.47;;
39018;SDS011;24786;51.984;5.872;2023-03-23T03:38:27;7.50;;;4.93;;
39018;SDS011;24786;51.984;5.872;2023-03-23T03:40:54;6.32;;;4.10;;
39018;SDS011;24786;51.984;5.872;2023-03-23T03:43:21;4.80;;;4.10;;
39018;SDS011;24786;51.984;5.872;2023-03-23T03:45:46;5.60;;;4.90;;
39018;SDS011;24786;51.984;5.872;2023-03-23T03:48:12;5.20;;;4.70;;
39018;SDS011;24786;51.984;5.872;2023-03-23T03:50:38;9.27;;;4.57;;
39018;SDS011;24786;51.984;5.872;2023-03-23T03:53:04;5.82;;;4.22;;
39018;SDS011;24786;51.984;5.872;2023-03-23T03:55:30;6.80;;;4.78;;
39018;SDS011;24786;51.984;5.872;2023-03-23T04:00:26;9.52;;;5.22;;
39018;SDS011;24786;51.984;5.872;2023-03-23T04:02:52;4.88;;;4.38;;
39018;SDS011;24786;51.984;5.872;2023-03-23T04:05:20;5.00;;;4.13;;
39018;SDS011;24786;51.984;5.872;2023-03-23T04:07:47;4.78;;;4.07;;
39018;SDS011;24786;51.984;5.872;2023-03-23T04:10:16;8.77;;;4.32;;
39018;SDS011;24786;51.984;5.872;2023-03-23T04:12:44;7.53;;;3.97;;
39018;SDS011;24786;51.984;5.872;2023-03-23T04:15:10;7.45;;;4.70;;
39018;SDS011;24786;51.984;5.872;2023-03-23T04:17:36;6.82;;;4.45;;
39018;SDS011;24786;51.984;5.872;2023-03-23T04:20:03;5.10;;;4.00;;
39018;SDS011;24786;51.984;5.872;2023-03-23T04:22:37;5.75;;;4.43;;
39018;SDS011;24786;51.984;5.872;2023-03-23T04:25:03;6.82;;;4.72;;
39018;SDS011;24786;51.984;5.872;2023-03-23T04:27:31;5.60;;;4.28;;
39018;SDS011;24786;51.984;5.872;2023-03-23T04:29:57;4.70;;;4.07;;
39018;SDS011;24786;51.984;5.872;2023-03-23T04:32:26;4.93;;;4.07;;
39018;SDS011;24786;51.984;5.872;2023-03-23T04:34:54;8.40;;;4.65;;
39018;SDS011;24786;51.984;5.872;2023-03-23T04:37:21;7.93;;;4.38;;
39018;SDS011;24786;51.984;5.872;2023-03-23T04:39:50;5.78;;;3.60;;
39018;SDS011;24786;51.984;5.872;2023-03-23T04:42:24;4.57;;;3.80;;
39018;SDS011;24786;51.984;5.872;2023-03-23T04:44:54;6.57;;;4.00;;
39018;SDS011;24786;51.984;5.872;2023-03-23T04:47:21;8.80;;;4.18;;
39018;SDS011;24786;51.984;5.872;2023-03-23T04:49:47;5.65;;;3.85;;
39018;SDS011;24786;51.984;5.872;2023-03-23T04:52:12;7.05;;;4.03;;
39018;SDS011;24786;51.984;5.872;2023-03-23T04:54:39;6.90;;;3.75;;
39018;SDS011;24786;51.984;5.872;2023-03-23T04:57:04;5.70;;;3.65;;
39018;SDS011;24786;51.984;5.872;2023-03-23T04:59:30;5.10;;;3.65;;
39018;SDS011;24786;51.984;5.872;2023-03-23T05:01:56;5.57;;;3.35;;
39018;SDS011;24786;51.984;5.872;2023-03-23T05:04:22;6.45;;;3.33;;
39018;SDS011;24786;51.984;5.872;2023-03-23T05:06:50;6.07;;;3.28;;
39018;SDS011;24786;51.984;5.872;2023-03-23T05:09:16;5.60;;;3.08;;
39018;SDS011;24786;51.984;5.872;2023-03-23T05:11:41;9.25;;;3.15;;
39018;SDS011;24786;51.984;5.872;2023-03-23T05:14:07;8.43;;;3.45;;
39018;SDS011;24786;51.984;5.872;2023-03-23T05:16:32;6.07;;;2.65;;
39018;SDS011;24786;51.984;5.872;2023-03-23T05:18:58;7.57;;;3.05;;
39018;SDS011;24786;51.984;5.872;2023-03-23T05:21:23;5.82;;;3.15;;
39018;SDS011;24786;51.984;5.872;2023-03-23T05:23:49;6.10;;;2.90;;
39018;SDS011;24786;51.984;5.872;2023-03-23T05:26:19;6.97;;;2.88;;
39018;SDS011;24786;51.984;5.872;2023-03-23T05:28:46;12.20;;;4.50;;
39018;SDS011;24786;51.984;5.872;2023-03-23T05:31:13;6.20;;;3.08;;
39018;SDS011;24786;51.984;5.872;2023-03-23T05:33:39;11.48;;;2.85;;
39018;SDS011;24786;51.984;5.872;2023-03-23T05:36:09;9.38;;;2.80;;
39018;SDS011;24786;51.984;5.872;2023-03-23T05:38:38;7.85;;;2.47;;
39018;SDS011;24786;51.984;5.872;2023-03-23T05:41:10;5.38;;;2.78;;
39018;SDS011;24786;51.984;5.872;2023-03-23T05:43:39;7.03;;;2.40;;
39018;SDS011;24786;51.984;5.872;2023-03-23T05:46:05;8.88;;;3.00;;
39018;SDS011;24786;51.984;5.872;2023-03-23T05:48:31;6.75;;;2.80;;
39018;SDS011;24786;51.984;5.872;2023-03-23T05:50:58;8.68;;;2.67;;
39018;SDS011;24786;51.984;5.872;2023-03-23T05:53:24;7.10;;;2.65;;
39018;SDS011;24786;51.984;5.872;2023-03-23T05:55:50;8.75;;;3.08;;
39018;SDS011;24786;51.984;5.872;2023-03-23T05:58:16;5.40;;;2.70;;
39018;SDS011;24786;51.984;5.872;2023-03-23T06:00:42;7.65;;;2.42;;
39018;SDS011;24786;51.984;5.872;2023-03-23T06:03:07;8.70;;;2.67;;
39018;SDS011;24786;51.984;5.872;2023-03-23T06:05:33;5.00;;;2.20;;
39018;SDS011;24786;51.984;5.872;2023-03-23T06:07:59;9.65;;;2.50;;
39018;SDS011;24786;51.984;5.872;2023-03-23T06:10:25;4.15;;;2.10;;
39018;SDS011;24786;51.984;5.872;2023-03-23T06:12:51;6.85;;;2.05;;
39018;SDS011;24786;51.984;5.872;2023-03-23T06:15:17;8.32;;;2.63;;
39018;SDS011;24786;51.984;5.872;2023-03-23T06:17:44;9.55;;;2.33;;
39018;SDS011;24786;51.984;5.872;2023-03-23T06:20:10;7.70;;;2.35;;
39018;SDS011;24786;51.984;5.872;2023-03-23T06:22:36;7.95;;;2.45;;
39018;SDS011;24786;51.984;5.872;2023-03-23T06:25:04;5.50;;;2.50;;
39018;SDS011;24786;51.984;5.872;2023-03-23T06:27:31;10.35;;;2.78;;
39018;SDS011;24786;51.984;5.872;2023-03-23T06:29:56;7.03;;;2.35;;
39018;SDS011;24786;51.984;5.872;2023-03-23T06:32:22;6.90;;;2.40;;
39018;SDS011;24786;51.984;5.872;2023-03-23T06:34:50;6.97;;;2.05;;
39018;SDS011;24786;51.984;5.872;2023-03-23T06:37:15;4.47;;;1.92;;
39018;SDS011;24786;51.984;5.872;2023-03-23T06:39:41;8.07;;;2.20;;
39018;SDS011;24786;51.984;5.872;2023-03-23T06:42:10;5.97;;;2.40;;
39018;SDS011;24786;51.984;5.872;2023-03-23T06:44:36;6.22;;;2.30;;
39018;SDS011;24786;51.984;5.872;2023-03-23T06:47:03;4.47;;;2.00;;
39018;SDS011;24786;51.984;5.872;2023-03-23T06:49:29;3.85;;;2.00;;
39018;SDS011;24786;51.984;5.872;2023-03-23T06:51:54;6.30;;;1.90;;
39018;SDS011;24786;51.984;5.872;2023-03-23T06:54:21;9.55;;;2.55;;
39018;SDS011;24786;51.984;5.872;2023-03-23T06:56:48;8.20;;;2.45;;
39018;SDS011;24786;51.984;5.872;2023-03-23T06:59:14;5.72;;;2.33;;
39018;SDS011;24786;51.984;5.872;2023-03-23T07:01:40;6.88;;;2.00;;
39018;SDS011;24786;51.984;5.872;2023-03-23T07:04:05;9.05;;;2.85;;
39018;SDS011;24786;51.984;5.872;2023-03-23T07:06:31;11.43;;;2.88;;
39018;SDS011;24786;51.984;5.872;2023-03-23T07:08:57;4.10;;;2.35;;
39018;SDS011;24786;51.984;5.872;2023-03-23T07:11:23;6.18;;;2.20;;
39018;SDS011;24786;51.984;5.872;2023-03-23T07:13:49;8.05;;;2.33;;
39018;SDS011;24786;51.984;5.872;2023-03-23T07:16:15;8.55;;;2.47;;
39018;SDS011;24786;51.984;5.872;2023-03-23T07:18:41;7.63;;;2.70;;
39018;SDS011;24786;51.984;5.872;2023-03-23T07:21:07;12.25;;;3.65;;
39018;SDS011;24786;51.984;5.872;2023-03-23T07:23:33;5.15;;;2.17;;
39018;SDS011;24786;51.984;5.872;2023-03-23T07:25:58;6.47;;;2.40;;
39018;SDS011;24786;51.984;5.872;2023-03-23T07:28:24;10.30;;;2.47;;
39018;SDS011;24786;51.984;5.872;2023-03-23T07:30:50;8.73;;;2.97;;
39018;SDS011;24786;51.984;5.872;2023-03-23T07:33:16;6.97;;;2.28;;
39018;SDS011;24786;51.984;5.872;2023-03-23T07:35:42;10.45;;;2.90;;
39018;SDS011;24786;51.984;5.872;2023-03-23T07:38:08;6.97;;;2.40;;
39018;SDS011;24786;51.984;5.872;2023-03-23T07:40:33;8.98;;;3.08;;
39018;SDS011;24786;51.984;5.872;2023-03-23T07:43:00;5.00;;;2.17;;
39018;SDS011;24786;51.984;5.872;2023-03-23T07:45:27;5.43;;;1.98;;
39018;SDS011;24786;51.984;5.872;2023-03-23T07:47:53;2.28;;;1.63;;
39018;SDS011;24786;51.984;5.872;2023-03-23T07:50:20;3.17;;;1.55;;
39018;SDS011;24786;51.984;5.872;2023-03-23T07:52:58;4.35;;;1.88;;
39018;SDS011;24786;51.984;5.872;2023-03-23T07:55:24;3.65;;;1.70;;
39018;SDS011;24786;51.984;5.872;2023-03-23T07:57:53;6.07;;;1.80;;
39018;SDS011;24786;51.984;5.872;2023-03-23T08:00:19;2.78;;;1.42;;
39018;SDS011;24786;51.984;5.872;2023-03-23T08:02:46;7.93;;;1.85;;
39018;SDS011;24786;51.984;5.872;2023-03-23T08:05:13;5.45;;;2.50;;
39018;SDS011;24786;51.984;5.872;2023-03-23T08:07:40;6.00;;;2.28;;
39018;SDS011;24786;51.984;5.872;2023-03-23T08:10:07;7.28;;;2.65;;
39018;SDS011;24786;51.984;5.872;2023-03-23T08:12:37;5.95;;;2.22;;
39018;SDS011;24786;51.984;5.872;2023-03-23T08:15:07;6.85;;;2.25;;
39018;SDS011;24786;51.984;5.872;2023-03-23T08:17:37;5.53;;;2.30;;
39018;SDS011;24786;51.984;5.872;2023-03-23T08:20:05;6.50;;;2.38;;
39018;SDS011;24786;51.984;5.872;2023-03-23T08:22:37;7.30;;;2.72;;
39018;SDS011;24786;51.984;5.872;2023-03-23T08:25:05;7.70;;;2.50;;
39018;SDS011;24786;51.984;5.872;2023-03-23T08:27:32;5.00;;;2.95;;
39018;SDS011;24786;51.984;5.872;2023-03-23T08:29:58;7.65;;;2.75;;
39018;SDS011;24786;51.984;5.872;2023-03-23T08:32:24;4.30;;;2.30;;
39018;SDS011;24786;51.984;5.872;2023-03-23T08:34:50;6.35;;;2.42;;
39018;SDS011;24786;51.984;5.872;2023-03-23T08:37:16;4.20;;;2.30;;
39018;SDS011;24786;51.984;5.872;2023-03-23T08:39:42;9.65;;;2.55;;
39018;SDS011;24786;51.984;5.872;2023-03-23T08:42:09;6.57;;;2.90;;
39018;SDS011;24786;51.984;5.872;2023-03-23T08:44:35;8.93;;;2.88;;
39018;SDS011;24786;51.984;5.872;2023-03-23T08:47:01;7.38;;;2.60;;
39018;SDS011;24786;51.984;5.872;2023-03-23T08:49:29;8.05;;;2.83;;
39018;SDS011;24786;51.984;5.872;2023-03-23T08:51:57;4.90;;;1.90;;
39018;SDS011;24786;51.984;5.872;2023-03-23T08:54:23;5.57;;;1.95;;
39018;SDS011;24786;51.984;5.872;2023-03-23T08:56:49;5.78;;;2.28;;
39018;SDS011;24786;51.984;5.872;2023-03-23T08:59:14;5.55;;;1.98;;
39018;SDS011;24786;51.984;5.872;2023-03-23T09:01:40;6.57;;;2.28;;
39018;SDS011;24786;51.984;5.872;2023-03-23T09:04:06;5.93;;;1.90;;
39018;SDS011;24786;51.984;5.872;2023-03-23T09:06:34;2.13;;;1.70;;
39018;SDS011;24786;51.984;5.872;2023-03-23T09:09:01;6.05;;;2.00;;
39018;SDS011;24786;51.984;5.872;2023-03-23T09:11:31;5.97;;;2.05;;
39018;SDS011;24786;51.984;5.872;2023-03-23T09:14:01;4.13;;;1.73;;
39018;SDS011;24786;51.984;5.872;2023-03-23T09:16:28;5.43;;;2.00;;
39018;SDS011;24786;51.984;5.872;2023-03-23T09:18:54;2.15;;;1.40;;
39018;SDS011;24786;51.984;5.872;2023-03-23T09:21:22;6.28;;;1.60;;
39018;SDS011;24786;51.984;5.872;2023-03-23T09:23:48;3.88;;;1.63;;
39018;SDS011;24786;51.984;5.872;2023-03-23T09:26:14;3.65;;;1.60;;
39018;SDS011;24786;51.984;5.872;2023-03-23T09:28:39;1.92;;;1.15;;
39018;SDS011;24786;51.984;5.872;2023-03-23T09:31:05;3.38;;;1.50;;
39018;SDS011;24786;51.984;5.872;2023-03-23T09:33:31;3.28;;;1.67;;
39018;SDS011;24786;51.984;5.872;2023-03-23T09:35:59;4.87;;;1.63;;
39018;SDS011;24786;51.984;5.872;2023-03-23T09:38:29;4.50;;;1.40;;
39018;SDS011;24786;51.984;5.872;2023-03-23T09:43:35;4.63;;;2.10;;
39018;SDS011;24786;51.984;5.872;2023-03-23T09:46:15;6.15;;;2.00;;
39018;SDS011;24786;51.984;5.872;2023-03-23T09:49:04;5.78;;;1.65;;
39018;SDS011;24786;51.984;5.872;2023-03-23T09:51:40;7.70;;;2.72;;
39018;SDS011;24786;51.984;5.872;2023-03-23T09:54:25;5.78;;;2.10;;
39018;SDS011;24786;51.984;5.872;2023-03-23T09:56:56;7.35;;;1.92;;
39018;SDS011;24786;51.984;5.872;2023-03-23T09:59:41;7.72;;;2.00;;
39018;SDS011;24786;51.984;5.872;2023-03-23T10:02:16;7.55;;;2.20;;
39018;SDS011;24786;51.984;5.872;2023-03-23T10:04:45;7.38;;;2.67;;
39018;SDS011;24786;51.984;5.872;2023-03-23T10:07:17;8.50;;;2.60;;
39018;SDS011;24786;51.984;5.872;2023-03-23T10:09:45;8.70;;;2.33;;
39018;SDS011;24786;51.984;5.872;2023-03-23T10:17:43;8.55;;;2.70;;
39018;SDS011;24786;51.984;5.872;2023-03-23T10:22:55;9.00;;;2.22;;
39018;SDS011;24786;51.984;5.872;2023-03-23T10:25:43;7.25;;;2.20;;
39018;SDS011;24786;51.984;5.872;2023-03-23T10:28:20;6.53;;;2.30;;
39018;SDS011;24786;51.984;5.872;2023-03-23T10:30:59;9.90;;;2.88;;
39018;SDS011;24786;51.984;5.872;2023-03-23T10:33:30;7.60;;;2.40;;
39018;SDS011;24786;51.984;5.872;2023-03-23T10:36:10;10.98;;;2.40;;
39018;SDS011;24786;51.984;5.872;2023-03-23T10:38:58;6.57;;;2.30;;
39018;SDS011;24786;51.984;5.872;2023-03-23T10:41:28;8.13;;;3.13;;
39018;SDS011;24786;51.984;5.872;2023-03-23T10:43:55;8.57;;;2.38;;
39018;SDS011;24786;51.984;5.872;2023-03-23T10:49:21;10.43;;;3.70;;
39018;SDS011;24786;51.984;5.872;2023-03-23T10:52:12;10.10;;;3.00;;
39018;SDS011;24786;51.984;5.872;2023-03-23T10:54:45;9.60;;;2.85;;
39018;SDS011;24786;51.984;5.872;2023-03-23T10:57:25;6.88;;;2.75;;
39018;SDS011;24786;51.984;5.872;2023-03-23T10:59:57;10.68;;;2.88;;
39018;SDS011;24786;51.984;5.872;2023-03-23T11:03:00;11.55;;;3.53;;
39018;SDS011;24786;51.984;5.872;2023-03-23T11:05:40;7.15;;;2.22;;
39018;SDS011;24786;51.984;5.872;2023-03-23T11:08:15;15.02;;;3.97;;
39018;SDS011;24786;51.984;5.872;2023-03-23T11:10:53;11.23;;;3.75;;
39018;SDS011;24786;51.984;5.872;2023-03-23T11:13:29;7.65;;;2.90;;
39018;SDS011;24786;51.984;5.872;2023-03-23T11:15:56;8.40;;;2.60;;
39018;SDS011;24786;51.984;5.872;2023-03-23T11:18:23;7.72;;;2.30;;
39018;SDS011;24786;51.984;5.872;2023-03-23T11:21:17;4.63;;;2.30;;
39018;SDS011;24786;51.984;5.872;2023-03-23T11:23:47;6.15;;;2.40;;
39018;SDS011;24786;51.984;5.872;2023-03-23T11:26:22;7.82;;;2.33;;
39018;SDS011;24786;51.984;5.872;2023-03-23T11:28:58;10.65;;;2.83;;
39018;SDS011;24786;51.984;5.872;2023-03-23T11:31:40;6.38;;;2.40;;
39018;SDS011;24786;51.984;5.872;2023-03-23T11:36:42;9.57;;;2.42;;
39018;SDS011;24786;51.984;5.872;2023-03-23T11:41:52;6.50;;;2.72;;
39018;SDS011;24786;51.984;5.872;2023-03-23T11:44:20;10.60;;;2.97;;
39018;SDS011;24786;51.984;5.872;2023-03-23T11:49:37;5.82;;;2.60;;
39018;SDS011;24786;51.984;5.872;2023-03-23T11:52:21;9.63;;;2.60;;
39018;SDS011;24786;51.984;5.872;2023-03-23T11:55:21;9.80;;;2.63;;
39018;SDS011;24786;51.984;5.872;2023-03-23T11:57:50;6.47;;;2.65;;
39018;SDS011;24786;51.984;5.872;2023-03-23T12:00:20;6.80;;;2.35;;
39018;SDS011;24786;51.984;5.872;2023-03-23T12:11:20;6.32;;;2.38;;
39018;SDS011;24786;51.984;5.872;2023-03-23T12:19:46;8.75;;;2.45;;
39018;SDS011;24786;51.984;5.872;2023-03-23T12:31:00;9.13;;;2.78;;
39018;SDS011;24786;51.984;5.872;2023-03-23T12:42:02;7.53;;;2.70;;
39018;SDS011;24786;51.984;5.872;2023-03-23T12:49:50;4.43;;;2.80;;
39018;SDS011;24786;51.984;5.872;2023-03-23T12:52:22;7.00;;;2.97;;
39018;SDS011;24786;51.984;5.872;2023-03-23T13:00:08;8.80;;;2.95;;
39018;SDS011;24786;51.984;5.872;2023-03-23T13:05:11;7.50;;;3.63;;
39018;SDS011;24786;51.984;5.872;2023-03-23T13:10:22;3.90;;;2.10;;
39018;SDS011;24786;51.984;5.872;2023-03-23T13:12:49;8.35;;;2.28;;
39018;SDS011;24786;51.984;5.872;2023-03-23T13:18:33;6.05;;;2.75;;
39018;SDS011;24786;51.984;5.872;2023-03-23T13:21:27;11.15;;;3.28;;
39018;SDS011;24786;51.984;5.872;2023-03-23T13:24:04;8.65;;;2.70;;
39018;SDS011;24786;51.984;5.872;2023-03-23T13:26:37;3.30;;;1.77;;
39018;SDS011;24786;51.984;5.872;2023-03-23T13:29:09;5.13;;;1.95;;
39018;SDS011;24786;51.984;5.872;2023-03-23T13:31:44;2.95;;;1.70;;
39018;SDS011;24786;51.984;5.872;2023-03-23T13:34:15;3.67;;;1.90;;
39018;SDS011;24786;51.984;5.872;2023-03-23T13:39:36;7.18;;;1.92;;
39018;SDS011;24786;51.984;5.872;2023-03-23T13:52:21;3.63;;;1.92;;
39018;SDS011;24786;51.984;5.872;2023-03-23T13:55:12;4.22;;;2.40;;
39018;SDS011;24786;51.984;5.872;2023-03-23T13:57:51;5.35;;;2.28;;
39018;SDS011;24786;51.984;5.872;2023-03-23T14:03:03;2.88;;;2.25;;
39018;SDS011;24786;51.984;5.872;2023-03-23T14:05:34;4.80;;;2.15;;
39018;SDS011;24786;51.984;5.872;2023-03-23T14:10:33;3.00;;;2.05;;
39018;SDS011;24786;51.984;5.872;2023-03-23T14:13:00;4.75;;;2.10;;
39018;SDS011;24786;51.984;5.872;2023-03-23T14:15:28;6.85;;;2.40;;
39018;SDS011;24786;51.984;5.872;2023-03-23T14:17:55;5.82;;;3.38;;
39018;SDS011;24786;51.984;5.872;2023-03-23T14:20:31;5.80;;;2.83;;
39018;SDS011;24786;51.984;5.872;2023-03-23T14:23:01;4.90;;;3.08;;
39018;SDS011;24786;51.984;5.872;2023-03-23T14:25:27;8.95;;;3.35;;
39018;SDS011;24786;51.984;5.872;2023-03-23T14:27:56;5.68;;;3.28;;
39018;SDS011;24786;51.984;5.872;2023-03-23T14:30:24;8.98;;;3.58;;
39018;SDS011;24786;51.984;5.872;2023-03-23T14:32:53;4.63;;;3.05;;
39018;SDS011;24786;51.984;5.872;2023-03-23T14:35:29;7.85;;;2.90;;
39018;SDS011;24786;51.984;5.872;2023-03-23T14:37:59;7.72;;;2.60;;
39018;SDS011;24786;51.984;5.872;2023-03-23T14:40:26;5.53;;;2.80;;
39018;SDS011;24786;51.984;5.872;2023-03-23T14:42:53;7.80;;;3.47;;
39018;SDS011;24786;51.984;5.872;2023-03-23T14:45:21;7.35;;;3.58;;
39018;SDS011;24786;51.984;5.872;2023-03-23T14:47:48;5.35;;;2.60;;
39018;SDS011;24786;51.984;5.872;2023-03-23T14:50:27;6.15;;;2.65;;
39018;SDS011;24786;51.984;5.872;2023-03-23T14:53:07;5.65;;;2.70;;
39018;SDS011;24786;51.984;5.872;2023-03-23T14:55:42;7.18;;;2.28;;
39018;SDS011;24786;51.984;5.872;2023-03-23T14:58:09;6.82;;;2.40;;
39018;SDS011;24786;51.984;5.872;2023-03-23T15:00:40;6.32;;;3.00;;
39018;SDS011;24786;51.984;5.872;2023-03-23T15:03:12;6.75;;;2.35;;
39018;SDS011;24786;51.984;5.872;2023-03-23T15:05:43;6.30;;;2.22;;
39018;SDS011;24786;51.984;5.872;2023-03-23T15:08:19;8.60;;;2.65;;
39018;SDS011;24786;51.984;5.872;2023-03-23T15:10:55;7.68;;;2.45;;
39018;SDS011;24786;51.984;5.872;2023-03-23T15:13:45;4.93;;;2.10;;
39018;SDS011;24786;51.984;5.872;2023-03-23T15:16:22;9.50;;;2.55;;
39018;SDS011;24786;51.984;5.872;2023-03-23T15:18:51;6.65;;;2.20;;
39018;SDS011;24786;51.984;5.872;2023-03-23T15:21:34;7.72;;;2.05;;
39018;SDS011;24786;51.984;5.872;2023-03-23T15:24:19;5.13;;;2.10;;
39018;SDS011;24786;51.984;5.872;2023-03-23T15:29:31;9.90;;;2.33;;
39018;SDS011;24786;51.984;5.872;2023-03-23T15:31:57;7.90;;;2.15;;
39018;SDS011;24786;51.984;5.872;2023-03-23T15:34:33;4.80;;;1.83;;
39018;SDS011;24786;51.984;5.872;2023-03-23T15:37:27;6.88;;;2.88;;
39018;SDS011;24786;51.984;5.872;2023-03-23T15:39:52;7.47;;;2.15;;
39018;SDS011;24786;51.984;5.872;2023-03-23T15:42:26;7.00;;;2.25;;
39018;SDS011;24786;51.984;5.872;2023-03-23T15:47:32;7.03;;;2.20;;
39018;SDS011;24786;51.984;5.872;2023-03-23T15:50:09;5.80;;;2.47;;
39018;SDS011;24786;51.984;5.872;2023-03-23T15:52:41;6.18;;;2.63;;
39018;SDS011;24786;51.984;5.872;2023-03-23T15:55:26;9.13;;;2.58;;
39018;SDS011;24786;51.984;5.872;2023-03-23T15:57:55;5.75;;;2.42;;
39018;SDS011;24786;51.984;5.872;2023-03-23T16:00:23;7.00;;;2.35;;
39018;SDS011;24786;51.984;5.872;2023-03-23T16:03:00;7.65;;;2.22;;
39018;SDS011;24786;51.984;5.872;2023-03-23T16:05:29;9.40;;;2.33;;
39018;SDS011;24786;51.984;5.872;2023-03-23T16:07:55;4.90;;;2.45;;
39018;SDS011;24786;51.984;5.872;2023-03-23T16:10:22;6.32;;;2.83;;
39018;SDS011;24786;51.984;5.872;2023-03-23T16:12:49;6.30;;;2.35;;
39018;SDS011;24786;51.984;5.872;2023-03-23T16:15:15;7.45;;;2.45;;
39018;SDS011;24786;51.984;5.872;2023-03-23T16:17:41;6.95;;;2.40;;
39018;SDS011;24786;51.984;5.872;2023-03-23T16:20:17;8.40;;;2.45;;
39018;SDS011;24786;51.984;5.872;2023-03-23T16:22:44;7.53;;;2.42;;
39018;SDS011;24786;51.984;5.872;2023-03-23T16:25:11;4.72;;;2.42;;
39018;SDS011;24786;51.984;5.872;2023-03-23T16:27:38;10.18;;;3.40;;
39018;SDS011;24786;51.984;5.872;2023-03-23T16:30:18;10.32;;;2.40;;
39018;SDS011;24786;51.984;5.872;2023-03-23T16:32:46;3.92;;;1.98;;
39018;SDS011;24786;51.984;5.872;2023-03-23T16:35:12;6.97;;;2.30;;
39018;SDS011;24786;51.984;5.872;2023-03-23T16:37:42;10.02;;;2.55;;
39018;SDS011;24786;51.984;5.872;2023-03-23T16:40:12;5.22;;;1.88;;
39018;SDS011;24786;51.984;5.872;2023-03-23T16:42:39;6.63;;;2.10;;
39018;SDS011;24786;51.984;5.872;2023-03-23T16:45:05;3.92;;;1.67;;
39018;SDS011;24786;51.984;5.872;2023-03-23T16:47:31;6.55;;;2.05;;
39018;SDS011;24786;51.984;5.872;2023-03-23T16:49:56;5.40;;;1.80;;
39018;SDS011;24786;51.984;5.872;2023-03-23T16:52:22;4.03;;;1.95;;
39018;SDS011;24786;51.984;5.872;2023-03-23T16:54:48;5.68;;;1.90;;
39018;SDS011;24786;51.984;5.872;2023-03-23T16:57:14;7.35;;;2.10;;
39018;SDS011;24786;51.984;5.872;2023-03-23T16:59:40;8.75;;;2.50;;
39018;SDS011;24786;51.984;5.872;2023-03-23T17:02:06;8.68;;;2.20;;
39018;SDS011;24786;51.984;5.872;2023-03-23T17:04:33;7.15;;;1.83;;
39018;SDS011;24786;51.984;5.872;2023-03-23T17:06:59;6.25;;;2.05;;
39018;SDS011;24786;51.984;5.872;2023-03-23T17:09:25;3.45;;;1.98;;